Time;durP1;ratioP1;P1;durP2;ratioP2;P2;SDS_P1;SDS_P2;PMS_P1;PMS_P2;Temp;Humidity;BMP_temperature;BMP_pressure;BME280_temperature;BME280_humidity;BME280_pressure;Samples;Min_cycle;Max_cycle;Signal;HPM_P1;HPM_P2
2023/09/17 00:02:14;;;;;;;20.10;16.08;;;18.50;66.10;;;;;;4973890;28;20275;-81
2023/09/17 00:04:41;;;;;;;20.98;15.45;;;18.40;66.20;;;;;;4973130;28;20629;-81
2023/09/17 00:07:09;;;;;;;18.65;15.20;;;18.40;66.00;;;;;;4986140;28;20059;-80
2023/09/17 00:09:36;;;;;;;19.80;15.02;;;18.40;66.20;;;;;;4993117;28;20133;-81
2023/09/17 00:12:03;;;;;;;18.43;14.27;;;18.40;66.40;;;;;;4982025;28;20054;-81
2023/09/17 00:14:32;;;;;;;18.88;14.57;;;18.40;66.40;;;;;;4973569;28;20279;-81
2023/09/17 00:16:59;;;;;;;18.33;13.93;;;18.40;66.80;;;;;;4983368;28;20054;-81
2023/09/17 00:19:27;;;;;;;18.20;14.00;;;18.30;66.90;;;;;;4992439;28;20054;-81
2023/09/17 00:21:54;;;;;;;19.17;14.48;;;18.30;67.00;;;;;;4991323;28;20057;-81
2023/09/17 00:24:22;;;;;;;20.93;15.10;;;18.30;67.10;;;;;;4984278;28;20566;-80
2023/09/17 00:26:48;;;;;;;20.95;15.43;;;18.20;67.10;;;;;;4973495;28;20258;-81
2023/09/17 00:29:15;;;;;;;20.90;14.88;;;18.20;67.20;;;;;;4973831;28;20051;-81
2023/09/17 00:31:44;;;;;;;18.30;14.23;;;18.20;67.20;;;;;;4980196;28;20138;-81
2023/09/17 00:34:12;;;;;;;18.90;14.38;;;18.20;67.30;;;;;;4992519;28;20053;-80
2023/09/17 00:36:38;;;;;;;18.23;14.37;;;18.20;67.50;;;;;;4992513;28;20073;-81
2023/09/17 00:39:08;;;;;;;20.02;15.38;;;18.20;67.50;;;;;;4988598;28;20287;-81
2023/09/17 00:41:35;;;;;;;18.48;14.50;;;18.20;67.50;;;;;;5003211;28;20051;-81
2023/09/17 00:44:02;;;;;;;19.63;14.80;;;18.10;67.50;;;;;;4957232;28;20137;-81
2023/09/17 00:46:31;;;;;;;21.33;15.60;;;18.10;67.60;;;;;;4972931;28;20105;-80
2023/09/17 00:49:01;;;;;;;20.73;15.33;;;18.10;67.70;;;;;;4972819;28;20051;-81
2023/09/17 00:51:31;;;;;;;21.85;15.00;;;18.00;67.70;;;;;;4973082;28;20281;-81
2023/09/17 00:54:00;;;;;;;20.30;15.55;;;18.00;67.60;;;;;;4989503;28;20051;-81
2023/09/17 00:56:29;;;;;;;20.88;15.40;;;18.00;67.80;;;;;;4988451;28;20143;-81
2023/09/17 00:58:57;;;;;;;21.95;16.67;;;18.00;67.70;;;;;;4956458;28;20058;-81
2023/09/17 01:01:24;;;;;;;21.00;15.33;;;18.00;67.80;;;;;;4989281;28;20146;-80
2023/09/17 01:03:52;;;;;;;19.33;15.02;;;18.00;67.90;;;;;;4989150;28;20342;-81
2023/09/17 01:06:21;;;;;;;20.17;15.85;;;18.00;67.90;;;;;;5005464;28;20081;-80
2023/09/17 01:08:49;;;;;;;21.27;15.70;;;18.00;67.90;;;;;;4973066;28;21033;-81
2023/09/17 01:11:18;;;;;;;19.23;15.07;;;18.00;67.80;;;;;;4972671;28;20059;-81
2023/09/17 01:13:49;;;;;;;20.33;15.13;;;18.00;67.80;;;;;;4989108;28;20613;-81
2023/09/17 01:16:16;;;;;;;21.45;14.90;;;18.00;67.80;;;;;;5003390;28;20262;-81
2023/09/17 01:18:44;;;;;;;20.67;16.08;;;18.00;67.90;;;;;;4975378;28;20074;-80
2023/09/17 01:21:16;;;;;;;20.08;15.25;;;18.00;68.00;;;;;;4976334;28;20133;-80
2023/09/17 01:23:51;;;;;;;22.05;16.08;;;18.00;68.20;;;;;;4973008;28;20489;-81
2023/09/17 01:26:26;;;;;;;19.57;15.63;;;18.00;68.10;;;;;;4970999;28;20070;-81
2023/09/17 01:28:55;;;;;;;22.33;16.30;;;18.00;68.10;;;;;;4987518;28;20857;-81
2023/09/17 01:31:23;;;;;;;22.88;16.95;;;18.00;68.20;;;;;;4972265;28;20059;-80
2023/09/17 01:33:53;;;;;;;19.98;16.00;;;18.00;68.20;;;;;;4972549;28;20155;-81
2023/09/17 01:36:25;;;;;;;22.48;15.68;;;18.00;68.30;;;;;;4988482;28;20478;-81
2023/09/17 01:38:58;;;;;;;20.57;16.20;;;18.00;68.30;;;;;;4972554;28;20059;-80
2023/09/17 01:41:28;;;;;;;20.50;15.05;;;17.90;68.30;;;;;;4986834;28;20333;-80
2023/09/17 01:43:57;;;;;;;22.65;16.55;;;17.90;68.60;;;;;;4991638;28;20145;-80
2023/09/17 01:46:25;;;;;;;20.75;15.20;;;17.90;68.40;;;;;;4977615;28;20133;-80
2023/09/17 01:48:53;;;;;;;20.73;15.88;;;17.80;68.40;;;;;;4972381;28;20553;-81
2023/09/17 01:51:21;;;;;;;23.43;16.07;;;17.80;68.20;;;;;;4967744;28;20058;-80
2023/09/17 01:53:49;;;;;;;22.38;15.95;;;17.80;68.40;;;;;;4991663;28;20721;-80
2023/09/17 01:56:17;;;;;;;21.67;15.50;;;17.80;68.50;;;;;;4980964;28;20054;-80
2023/09/17 01:58:45;;;;;;;21.42;15.48;;;17.80;68.40;;;;;;4988262;28;20561;-81
2023/09/17 02:01:15;;;;;;;23.98;16.15;;;17.80;68.40;;;;;;4972345;28;20173;-80
2023/09/17 02:03:42;;;;;;;21.40;15.87;;;17.80;68.60;;;;;;4971227;28;20094;-80
2023/09/17 02:06:09;;;;;;;21.38;16.58;;;17.80;68.50;;;;;;5000071;28;20300;-80
2023/09/17 02:08:36;;;;;;;22.42;16.92;;;17.80;68.20;;;;;;4991461;28;20051;-81
2023/09/17 02:11:06;;;;;;;23.50;17.02;;;17.80;68.60;;;;;;4977363;28;20055;-81
2023/09/17 02:13:33;;;;;;;22.38;16.75;;;17.80;68.80;;;;;;4969214;28;20509;-80
2023/09/17 02:16:00;;;;;;;22.33;16.83;;;17.80;69.10;;;;;;4993332;28;20082;-80
2023/09/17 02:18:28;;;;;;;23.25;17.05;;;17.80;69.30;;;;;;4972031;28;20362;-80
2023/09/17 02:20:55;;;;;;;25.08;17.15;;;17.80;69.30;;;;;;4978931;28;20445;-81
2023/09/17 02:23:23;;;;;;;21.70;16.13;;;17.80;68.90;;;;;;4990614;28;20054;-80
2023/09/17 02:25:50;;;;;;;23.40;16.33;;;17.80;69.30;;;;;;4971886;28;20050;-81
2023/09/17 02:28:18;;;;;;;22.80;16.90;;;17.80;69.50;;;;;;4972141;28;20157;-80
2023/09/17 02:30:45;;;;;;;24.33;17.55;;;17.80;69.70;;;;;;4960401;28;20254;-81
2023/09/17 02:33:12;;;;;;;23.92;17.02;;;17.80;69.80;;;;;;4991462;28;20050;-81
2023/09/17 02:35:41;;;;;;;24.25;17.08;;;17.80;69.80;;;;;;4987226;28;20579;-80
2023/09/17 02:38:08;;;;;;;25.17;17.83;;;17.80;70.00;;;;;;5004691;28;20054;-80
2023/09/17 02:40:35;;;;;;;23.07;17.00;;;17.80;69.80;;;;;;4987636;28;20069;-81
2023/09/17 02:43:02;;;;;;;23.33;16.88;;;17.70;69.40;;;;;;4971603;28;20994;-80
2023/09/17 02:45:29;;;;;;;24.10;17.35;;;17.80;69.40;;;;;;4987039;28;20518;-80
2023/09/17 02:47:56;;;;;;;21.17;16.13;;;17.70;69.80;;;;;;4989145;28;20158;-80
2023/09/17 02:50:23;;;;;;;21.65;16.27;;;17.70;70.10;;;;;;4970981;28;20456;-80
2023/09/17 02:52:51;;;;;;;25.07;17.43;;;17.70;70.00;;;;;;4982783;28;20055;-80
2023/09/17 02:55:19;;;;;;;24.83;17.27;;;17.70;70.20;;;;;;5003709;28;20875;-80
2023/09/17 02:57:48;;;;;;;22.48;17.13;;;17.70;70.30;;;;;;4990858;28;20042;-80
2023/09/17 03:00:17;;;;;;;23.52;17.38;;;17.70;70.10;;;;;;4990484;28;20050;-80
2023/09/17 03:02:47;;;;;;;23.60;18.65;;;17.70;70.40;;;;;;4984203;28;20050;-80
2023/09/17 03:05:16;;;;;;;24.03;17.30;;;17.60;70.70;;;;;;4994551;28;20058;-80
2023/09/17 03:07:45;;;;;;;25.35;17.95;;;17.60;70.80;;;;;;4994078;28;20872;-80
2023/09/17 03:10:14;;;;;;;23.92;17.92;;;17.60;70.80;;;;;;4973456;28;20105;-80
2023/09/17 03:12:43;;;;;;;26.05;18.20;;;17.60;70.90;;;;;;5007313;28;20565;-81
2023/09/17 03:15:11;;;;;;;24.20;18.80;;;17.60;70.70;;;;;;4974982;28;20126;-80
2023/09/17 03:17:38;;;;;;;26.47;18.70;;;17.60;71.10;;;;;;4978059;28;20061;-80
2023/09/17 03:20:13;;;;;;;23.20;17.52;;;17.60;70.90;;;;;;4990686;28;20318;-80
2023/09/17 03:22:41;;;;;;;24.63;18.40;;;17.60;71.30;;;;;;5007300;28;20481;-80
2023/09/17 03:25:08;;;;;;;25.58;18.50;;;17.60;71.40;;;;;;4990404;28;20055;-80
2023/09/17 03:27:38;;;;;;;24.77;18.40;;;17.50;71.60;;;;;;4993111;28;20174;-80
2023/09/17 03:30:07;;;;;;;25.23;17.70;;;17.50;71.60;;;;;;4993779;28;20046;-80
2023/09/17 03:32:34;;;;;;;26.38;18.77;;;17.50;71.50;;;;;;4993300;28;20764;-80
2023/09/17 03:35:03;;;;;;;27.40;18.52;;;17.50;71.30;;;;;;4974146;28;20733;-81
2023/09/17 03:37:31;;;;;;;24.98;18.63;;;17.50;71.60;;;;;;4974448;28;20123;-80
2023/09/17 03:40:10;;;;;;;24.50;18.20;;;17.50;71.80;;;;;;4990139;28;20057;-80
2023/09/17 03:42:40;;;;;;;25.70;18.40;;;17.50;71.70;;;;;;4974488;28;20051;-81
2023/09/17 03:45:10;;;;;;;25.63;17.88;;;17.50;71.70;;;;;;4972814;28;20263;-80
2023/09/17 03:47:38;;;;;;;24.40;17.70;;;17.50;71.90;;;;;;4974221;28;20153;-80
2023/09/17 03:50:08;;;;;;;25.60;18.55;;;17.50;72.10;;;;;;4990175;28;20050;-81
2023/09/17 03:52:36;;;;;;;24.60;17.77;;;17.50;71.70;;;;;;4981669;28;20125;-80
2023/09/17 03:55:05;;;;;;;25.23;17.73;;;17.50;72.00;;;;;;4973432;28;20481;-80
2023/09/17 03:57:34;;;;;;;25.83;18.00;;;17.50;72.10;;;;;;4989799;28;20287;-80
2023/09/17 04:00:06;;;;;;;26.67;17.58;;;17.50;72.10;;;;;;4973351;28;20050;-81
2023/09/17 04:02:39;;;;;;;27.05;18.65;;;17.50;72.60;;;;;;4954080;28;20926;-78
2023/09/17 04:05:10;;;;;;;24.63;17.73;;;17.50;72.60;;;;;;4953913;28;20055;-80
2023/09/17 04:07:40;;;;;;;24.77;17.27;;;17.50;72.70;;;;;;4972720;28;20046;-81
2023/09/17 04:10:08;;;;;;;24.52;16.75;;;17.50;72.30;;;;;;4989588;28;20281;-81
2023/09/17 04:12:36;;;;;;;22.42;16.83;;;17.50;72.30;;;;;;4977004;28;20265;-80
2023/09/17 04:15:10;;;;;;;22.77;17.15;;;17.50;72.80;;;;;;4993056;28;20547;-80
2023/09/17 04:17:39;;;;;;;23.60;17.67;;;17.50;72.50;;;;;;5005283;28;20555;-80
2023/09/17 04:20:11;;;;;;;25.10;17.67;;;17.50;72.20;;;;;;4987640;28;20485;-80
2023/09/17 04:22:38;;;;;;;26.33;17.75;;;17.50;72.10;;;;;;4992842;28;20375;-80
2023/09/17 04:25:05;;;;;;;23.27;16.95;;;17.50;72.20;;;;;;4978425;28;20074;-80
2023/09/17 04:27:32;;;;;;;25.83;18.17;;;17.50;72.40;;;;;;4973101;28;20050;-80
2023/09/17 04:29:59;;;;;;;25.30;17.35;;;17.50;72.00;;;;;;4970142;28;20500;-80
2023/09/17 04:32:28;;;;;;;24.53;18.13;;;17.50;72.20;;;;;;4976648;28;20058;-81
2023/09/17 04:34:55;;;;;;;26.15;17.65;;;17.50;73.00;;;;;;4966687;28;20259;-81
2023/09/17 04:37:22;;;;;;;25.98;18.25;;;17.50;73.30;;;;;;4969996;28;20086;-80
2023/09/17 04:39:49;;;;;;;24.13;17.10;;;17.50;73.10;;;;;;4991731;28;20068;-80
2023/09/17 04:42:17;;;;;;;25.30;18.05;;;17.50;73.30;;;;;;4989932;28;20054;-80
2023/09/17 04:44:45;;;;;;;23.47;16.90;;;17.50;73.30;;;;;;4972933;28;20055;-80
2023/09/17 04:47:12;;;;;;;25.73;17.75;;;17.50;73.10;;;;;;4973282;28;20321;-80
2023/09/17 04:49:41;;;;;;;25.58;18.08;;;17.50;73.40;;;;;;4972640;28;20564;-81
2023/09/17 04:52:08;;;;;;;23.77;16.40;;;17.50;73.20;;;;;;4971750;28;20051;-80
2023/09/17 04:54:38;;;;;;;25.65;18.00;;;17.50;73.50;;;;;;4974785;28;20635;-80
2023/09/17 04:57:07;;;;;;;25.70;17.60;;;17.50;74.00;;;;;;4992530;28;20476;-81
2023/09/17 04:59:34;;;;;;;23.15;17.40;;;17.50;74.30;;;;;;4988774;28;20247;-80
2023/09/17 05:02:03;;;;;;;26.33;18.45;;;17.50;74.20;;;;;;4972877;28;20498;-80
2023/09/17 05:04:30;;;;;;;26.10;17.92;;;17.50;73.90;;;;;;4956749;28;20460;-81
2023/09/17 05:06:59;;;;;;;25.35;18.33;;;17.50;73.90;;;;;;4988870;28;20142;-81
2023/09/17 05:09:26;;;;;;;25.47;18.30;;;17.50;73.90;;;;;;4971701;28;20133;-80
2023/09/17 05:11:53;;;;;;;28.20;18.20;;;17.50;73.50;;;;;;4956699;28;20278;-81
2023/09/17 05:14:20;;;;;;;27.02;18.55;;;17.50;74.00;;;;;;4979310;28;20074;-80
2023/09/17 05:16:48;;;;;;;29.25;18.65;;;17.50;74.60;;;;;;4988468;28;20513;-81
2023/09/17 05:19:14;;;;;;;26.00;17.88;;;17.50;74.60;;;;;;4985211;28;20106;-80
2023/09/17 05:21:42;;;;;;;28.37;18.17;;;17.50;75.10;;;;;;4988347;28;20533;-81
2023/09/17 05:24:11;;;;;;;26.63;17.65;;;17.50;75.00;;;;;;4988545;28;20259;-80
2023/09/17 05:26:38;;;;;;;28.80;19.40;;;17.50;75.40;;;;;;4955595;28;20577;-80
2023/09/17 05:29:05;;;;;;;25.10;17.50;;;17.50;75.50;;;;;;4992186;28;20450;-80
2023/09/17 05:31:33;;;;;;;26.48;18.45;;;17.50;75.20;;;;;;4975642;28;20054;-81
2023/09/17 05:34:01;;;;;;;27.03;18.27;;;17.50;75.30;;;;;;4991388;28;20137;-80
2023/09/17 05:36:28;;;;;;;26.42;18.55;;;17.50;75.50;;;;;;4987853;28;20306;-81
2023/09/17 05:38:57;;;;;;;26.10;18.65;;;17.50;75.70;;;;;;5004386;28;20050;-81
2023/09/17 05:41:25;;;;;;;27.15;18.15;;;17.50;75.50;;;;;;4988249;28;20055;-80
2023/09/17 05:43:53;;;;;;;26.98;18.92;;;17.50;76.10;;;;;;4971152;28;20058;-80
2023/09/17 05:46:20;;;;;;;28.73;18.87;;;17.50;76.10;;;;;;4955916;28;20145;-80
2023/09/17 05:48:49;;;;;;;25.63;18.42;;;17.50;76.30;;;;;;4981631;28;20341;-81
2023/09/17 05:51:16;;;;;;;29.40;19.30;;;17.50;76.20;;;;;;4991706;28;20113;-81
2023/09/17 05:53:44;;;;;;;24.20;17.92;;;17.50;75.80;;;;;;4974932;28;20493;-80
2023/09/17 05:56:11;;;;;;;27.73;19.83;;;17.50;76.20;;;;;;4972159;28;20051;-80
2023/09/17 05:58:41;;;;;;;27.97;18.90;;;17.50;76.10;;;;;;4971717;28;20097;-81
2023/09/17 06:01:10;;;;;;;28.13;19.80;;;17.50;75.90;;;;;;4988186;28;20267;-80
2023/09/17 06:03:37;;;;;;;26.92;19.55;;;17.50;76.20;;;;;;4979963;28;20064;-80
2023/09/17 06:06:05;;;;;;;28.70;20.45;;;17.50;76.10;;;;;;4975170;28;20050;-80
2023/09/17 06:08:32;;;;;;;28.52;20.65;;;17.50;76.20;;;;;;5007231;28;20078;-80
2023/09/17 06:10:59;;;;;;;27.97;20.20;;;17.50;76.80;;;;;;4972071;28;20466;-81
2023/09/17 06:13:28;;;;;;;29.23;20.50;;;17.50;76.90;;;;;;4985157;28;20247;-81
2023/09/17 06:15:56;;;;;;;26.60;19.85;;;17.50;77.20;;;;;;4988220;28;20043;-81
2023/09/17 06:18:23;;;;;;;28.88;21.23;;;17.50;77.20;;;;;;4992039;28;20125;-80
2023/09/17 06:20:51;;;;;;;27.95;19.95;;;17.50;76.90;;;;;;4990806;28;20064;-80
2023/09/17 06:23:18;;;;;;;26.63;19.43;;;17.50;77.30;;;;;;5007198;28;20055;-80
2023/09/17 06:25:45;;;;;;;26.95;19.33;;;17.50;77.60;;;;;;4955260;28;20298;-80
2023/09/17 06:28:12;;;;;;;26.08;18.77;;;17.60;77.70;;;;;;4990291;28;20655;-80
2023/09/17 06:30:40;;;;;;;26.48;19.48;;;17.60;77.90;;;;;;4991371;28;20133;-80
2023/09/17 06:33:08;;;;;;;26.75;19.38;;;17.60;78.10;;;;;;4994514;28;20078;-80
2023/09/17 06:35:36;;;;;;;27.23;19.30;;;17.60;78.00;;;;;;4973802;28;20054;-80
2023/09/17 06:38:03;;;;;;;25.75;18.80;;;17.60;78.30;;;;;;4991160;28;20274;-80
2023/09/17 06:40:30;;;;;;;23.00;17.00;;;17.60;78.20;;;;;;5007207;28;20497;-80
2023/09/17 06:42:57;;;;;;;27.17;17.65;;;17.60;77.70;;;;;;4990686;28;20055;-80
2023/09/17 06:45:24;;;;;;;22.40;17.50;;;17.60;78.30;;;;;;5007269;28;20097;-80
2023/09/17 06:47:51;;;;;;;26.30;18.50;;;17.60;78.00;;;;;;4982894;28;20145;-80
2023/09/17 06:50:19;;;;;;;21.60;15.57;;;17.60;78.30;;;;;;4990709;28;20358;-80
2023/09/17 06:52:46;;;;;;;24.05;18.15;;;17.60;77.70;;;;;;4985561;28;20051;-80
2023/09/17 06:55:13;;;;;;;25.52;18.20;;;17.70;77.10;;;;;;4974555;28;20752;-80
2023/09/17 06:57:40;;;;;;;27.75;19.35;;;17.70;77.70;;;;;;4974179;28;20061;-80
2023/09/17 07:00:08;;;;;;;26.23;18.80;;;17.80;77.60;;;;;;4974712;28;20433;-81
2023/09/17 07:02:37;;;;;;;25.08;18.42;;;17.80;78.00;;;;;;4974174;28;20251;-81
2023/09/17 07:05:10;;;;;;;25.55;19.05;;;17.80;78.20;;;;;;4984165;28;20046;-81
2023/09/17 07:07:38;;;;;;;26.77;18.58;;;17.80;78.40;;;;;;5011780;28;20060;-81
2023/09/17 07:10:06;;;;;;;24.70;19.02;;;17.80;78.30;;;;;;4975598;28;20047;-81
2023/09/17 07:12:37;;;;;;;25.83;18.23;;;17.80;78.30;;;;;;4974633;28;20042;-81
2023/09/17 07:15:10;;;;;;;25.15;17.63;;;17.80;78.50;;;;;;4983906;28;20278;-81
2023/09/17 07:17:38;;;;;;;24.38;18.58;;;17.80;78.40;;;;;;4990681;28;20105;-81
2023/09/17 07:20:06;;;;;;;25.10;18.25;;;17.80;78.60;;;;;;4974328;28;20445;-81
2023/09/17 07:22:33;;;;;;;25.25;19.42;;;17.90;78.80;;;;;;4958427;28;20039;-81
2023/09/17 07:25:04;;;;;;;25.83;19.33;;;17.90;78.90;;;;;;4974129;28;20684;-81
2023/09/17 07:27:33;;;;;;;28.40;19.25;;;17.90;78.70;;;;;;4988797;28;20881;-81
2023/09/17 07:30:00;;;;;;;23.25;18.05;;;17.90;78.50;;;;;;4973877;28;20050;-81
2023/09/17 07:32:28;;;;;;;23.83;19.20;;;17.90;78.10;;;;;;4975315;28;20544;-81
2023/09/17 07:34:55;;;;;;;25.08;18.88;;;18.00;78.60;;;;;;4973994;28;20062;-81
2023/09/17 07:37:23;;;;;;;25.03;18.57;;;18.00;78.80;;;;;;4991311;28;20058;-81
2023/09/17 07:40:01;;;;;;;24.77;18.10;;;18.00;78.80;;;;;;5011842;28;20333;-81
2023/09/17 07:42:29;;;;;;;24.88;17.73;;;18.00;79.00;;;;;;4990296;28;20057;-81
2023/09/17 07:44:56;;;;;;;26.13;19.85;;;18.00;79.00;;;;;;4973841;28;20546;-81
2023/09/17 07:47:23;;;;;;;26.10;18.65;;;18.00;78.90;;;;;;4991116;28;20125;-81
2023/09/17 07:49:50;;;;;;;23.50;17.10;;;18.00;79.00;;;;;;4977426;28;20078;-81
2023/09/17 07:52:18;;;;;;;24.52;18.42;;;18.00;78.70;;;;;;4985592;28;20341;-81
2023/09/17 07:54:44;;;;;;;23.35;18.02;;;18.00;78.80;;;;;;4989867;28;20486;-81
2023/09/17 07:57:13;;;;;;;24.98;18.23;;;18.00;78.80;;;;;;4991717;28;20090;-81
2023/09/17 07:59:42;;;;;;;21.35;17.00;;;18.00;78.90;;;;;;4988357;28;20134;-81
2023/09/17 08:02:09;;;;;;;23.17;17.53;;;18.00;78.90;;;;;;4987488;28;20130;-80
2023/09/17 08:04:38;;;;;;;21.70;16.55;;;18.00;79.00;;;;;;4993689;28;20814;-81
2023/09/17 08:07:05;;;;;;;23.08;17.52;;;18.00;78.90;;;;;;4992906;28;20057;-81
2023/09/17 08:09:32;;;;;;;25.63;18.17;;;18.00;79.00;;;;;;4989825;28;20176;-81
2023/09/17 08:12:00;;;;;;;24.80;18.02;;;18.00;78.90;;;;;;4990254;28;20047;-81
2023/09/17 08:14:28;;;;;;;25.23;17.50;;;18.00;79.10;;;;;;4973184;28;20606;-81
2023/09/17 08:16:56;;;;;;;23.55;18.10;;;18.00;79.10;;;;;;4972373;28;20358;-81
2023/09/17 08:19:23;;;;;;;26.92;18.80;;;18.00;79.00;;;;;;4973236;28;20137;-81
2023/09/17 08:21:51;;;;;;;25.63;18.40;;;18.00;79.10;;;;;;4975521;28;22062;-81
2023/09/17 08:24:20;;;;;;;27.00;19.20;;;18.10;78.90;;;;;;5002018;28;20178;-81
2023/09/17 08:26:49;;;;;;;23.93;17.60;;;18.10;79.00;;;;;;4972666;28;20513;-81
2023/09/17 08:29:15;;;;;;;27.63;19.35;;;18.10;78.90;;;;;;4972846;28;20567;-81
2023/09/17 08:31:43;;;;;;;24.67;18.83;;;18.10;78.90;;;;;;4991268;28;20510;-81
2023/09/17 08:34:11;;;;;;;27.55;19.73;;;18.10;78.60;;;;;;4972223;28;20077;-81
2023/09/17 08:36:38;;;;;;;24.83;18.80;;;18.10;78.70;;;;;;4973196;28;20505;-81
2023/09/17 08:39:06;;;;;;;25.97;18.33;;;18.10;79.10;;;;;;4992311;28;20058;-81
2023/09/17 08:41:34;;;;;;;24.95;17.90;;;18.10;79.10;;;;;;4992432;28;20625;-81
2023/09/17 08:44:04;;;;;;;24.98;18.65;;;18.10;79.20;;;;;;4986997;28;20055;-81
2023/09/17 08:46:32;;;;;;;25.58;18.67;;;18.20;79.20;;;;;;4956726;28;20109;-81
2023/09/17 08:48:59;;;;;;;24.90;18.60;;;18.20;78.90;;;;;;4956932;28;20051;-81
2023/09/17 08:51:32;;;;;;;24.00;17.67;;;18.20;78.90;;;;;;4971956;28;20584;-81
2023/09/17 08:54:06;;;;;;;24.80;19.20;;;18.20;79.00;;;;;;4975091;28;20286;-81
2023/09/17 08:56:36;;;;;;;24.13;17.77;;;18.20;79.00;;;;;;4992561;28;20136;-81
2023/09/17 08:59:11;;;;;;;24.20;18.27;;;18.20;79.00;;;;;;4989513;28;20119;-81
2023/09/17 09:01:40;;;;;;;24.67;18.83;;;18.20;79.00;;;;;;4989296;28;20051;-81
2023/09/17 09:04:09;;;;;;;24.47;17.80;;;18.20;79.10;;;;;;4956807;28;20086;-81
2023/09/17 09:06:40;;;;;;;26.02;19.08;;;18.20;79.20;;;;;;4972605;28;20281;-81
2023/09/17 09:09:10;;;;;;;22.98;17.23;;;18.30;79.50;;;;;;4988197;28;20601;-80
2023/09/17 09:11:37;;;;;;;23.35;17.35;;;18.30;79.50;;;;;;4972589;28;20149;-80
2023/09/17 09:14:05;;;;;;;23.48;18.45;;;18.30;79.40;;;;;;4999209;28;20050;-81
2023/09/17 09:16:36;;;;;;;22.33;16.37;;;18.30;79.70;;;;;;5005277;28;20054;-81
2023/09/17 09:19:03;;;;;;;22.00;16.27;;;18.30;79.80;;;;;;4972624;28;20270;-81
2023/09/17 09:21:30;;;;;;;22.50;16.35;;;18.40;79.70;;;;;;4972644;28;20447;-81
2023/09/17 09:23:59;;;;;;;22.95;16.75;;;18.40;79.70;;;;;;4972433;28;20100;-81
2023/09/17 09:26:35;;;;;;;20.75;16.40;;;18.40;79.70;;;;;;4971633;28;20111;-81
2023/09/17 09:29:03;;;;;;;23.53;17.57;;;18.40;79.70;;;;;;4980080;28;20203;-81
2023/09/17 09:31:32;;;;;;;23.40;16.95;;;18.50;79.60;;;;;;4991564;28;20261;-81
2023/09/17 09:34:00;;;;;;;25.20;17.67;;;18.50;79.80;;;;;;4991618;28;20085;-81
2023/09/17 09:36:28;;;;;;;26.10;19.40;;;18.50;79.80;;;;;;4972190;28;20050;-81
2023/09/17 09:38:56;;;;;;;24.05;18.42;;;18.60;80.00;;;;;;4988488;28;20098;-81
2023/09/17 09:41:25;;;;;;;22.90;17.83;;;18.60;79.90;;;;;;4971681;28;20051;-81
2023/09/17 09:43:53;;;;;;;22.63;17.40;;;18.60;79.80;;;;;;4976514;28;20296;-81
2023/09/17 09:46:20;;;;;;;25.02;18.05;;;18.70;79.90;;;;;;5007658;28;20046;-80
2023/09/17 09:48:50;;;;;;;22.60;17.90;;;18.70;80.20;;;;;;4974933;28;20055;-81
2023/09/17 09:51:18;;;;;;;23.92;17.15;;;18.70;80.00;;;;;;5009548;28;20054;-81
2023/09/17 09:53:45;;;;;;;23.47;18.27;;;18.80;79.90;;;;;;4981016;28;20054;-81
2023/09/17 09:56:12;;;;;;;20.65;15.52;;;18.80;80.10;;;;;;5007789;28;20304;-81
2023/09/17 09:58:42;;;;;;;21.38;16.38;;;18.80;79.90;;;;;;4991463;28;20667;-80
2023/09/17 10:01:09;;;;;;;22.50;17.13;;;18.90;79.70;;;;;;4977254;28;20045;-81
2023/09/17 10:03:37;;;;;;;22.70;16.50;;;18.90;79.70;;;;;;4971814;28;20150;-81
2023/09/17 10:06:07;;;;;;;25.70;17.47;;;18.90;79.80;;;;;;4983527;28;20483;-81
2023/09/17 10:08:35;;;;;;;21.20;15.52;;;18.90;79.70;;;;;;4990868;28;20258;-81
2023/09/17 10:11:03;;;;;;;21.92;17.20;;;19.00;79.70;;;;;;4987907;28;20821;-81
2023/09/17 10:13:32;;;;;;;21.45;16.38;;;19.00;79.60;;;;;;4971857;28;20059;-82
2023/09/17 10:16:02;;;;;;;24.60;17.17;;;19.00;79.50;;;;;;4972492;28;20102;-81
2023/09/17 10:18:32;;;;;;;23.83;17.77;;;19.00;79.60;;;;;;4970567;28;20055;-82
2023/09/17 10:21:00;;;;;;;21.17;17.20;;;19.00;79.70;;;;;;4982712;28;20259;-82
2023/09/17 10:23:32;;;;;;;22.70;16.85;;;19.00;79.80;;;;;;5006033;28;20050;-82
2023/09/17 10:26:04;;;;;;;23.60;17.17;;;19.00;80.00;;;;;;4988286;28;20078;-81
2023/09/17 10:28:33;;;;;;;23.80;17.52;;;19.00;80.00;;;;;;4952162;28;20146;-81
2023/09/17 10:31:02;;;;;;;24.07;17.40;;;19.00;79.90;;;;;;4979228;28;20050;-82
2023/09/17 10:33:31;;;;;;;24.75;17.77;;;19.00;80.00;;;;;;4971315;28;20849;-81
2023/09/17 10:36:00;;;;;;;23.30;17.52;;;19.00;80.10;;;;;;4980847;28;20065;-81
2023/09/17 10:38:31;;;;;;;24.40;17.02;;;19.10;80.20;;;;;;4990942;28;20065;-81
2023/09/17 10:41:00;;;;;;;23.13;17.13;;;19.10;80.40;;;;;;4990047;28;20608;-81
2023/09/17 10:43:28;;;;;;;22.47;17.77;;;19.10;80.50;;;;;;5000051;28;20524;-80
2023/09/17 10:45:56;;;;;;;24.25;18.10;;;19.10;80.70;;;;;;4971076;28;20273;-81
2023/09/17 10:48:28;;;;;;;23.85;17.33;;;19.10;80.90;;;;;;4971212;28;20145;-81
2023/09/17 10:50:55;;;;;;;22.25;17.17;;;19.10;80.90;;;;;;4988604;28;20576;-81
2023/09/17 10:53:24;;;;;;;23.13;16.60;;;19.10;80.60;;;;;;4986806;28;20142;-80
2023/09/17 10:55:57;;;;;;;22.57;16.63;;;19.10;80.70;;;;;;4971348;28;20059;-80
2023/09/17 10:58:29;;;;;;;23.50;16.80;;;19.20;80.60;;;;;;4990683;28;20266;-81
2023/09/17 11:00:58;;;;;;;22.77;16.98;;;19.20;80.50;;;;;;4997879;28;20053;-80
2023/09/17 11:03:28;;;;;;;28.77;17.00;;;19.20;80.50;;;;;;4951568;28;20506;-81
2023/09/17 11:05:57;;;;;;;22.48;16.08;;;19.20;80.60;;;;;;4967945;28;20521;-80
2023/09/17 11:08:25;;;;;;;22.70;18.03;;;19.20;80.50;;;;;;4970209;28;20078;-81
2023/09/17 11:10:51;;;;;;;25.23;18.88;;;19.20;80.70;;;;;;4970592;28;20294;-80
2023/09/17 11:13:20;;;;;;;23.65;17.98;;;19.30;80.90;;;;;;4988721;28;20113;-81
2023/09/17 11:15:49;;;;;;;26.38;19.70;;;19.30;81.10;;;;;;4990387;28;20169;-81
2023/09/17 11:18:16;;;;;;;24.77;19.27;;;19.30;81.40;;;;;;4972772;28;20050;-81
2023/09/17 11:21:04;;;;;;;26.80;19.43;;;19.40;81.70;;;;;;5006653;28;20055;-81
2023/09/17 11:23:44;;;;;;;26.35;18.83;;;19.40;81.60;;;;;;4974094;28;20385;-81
2023/09/17 11:26:15;;;;;;;22.92;18.20;;;19.40;81.70;;;;;;4989669;28;20051;-81
2023/09/17 11:28:44;;;;;;;28.55;20.23;;;19.40;81.70;;;;;;4993637;28;20062;-81
2023/09/17 11:31:14;;;;;;;26.23;19.38;;;19.50;81.90;;;;;;4993576;28;20433;-81
2023/09/17 11:33:43;;;;;;;27.47;18.97;;;19.50;81.90;;;;;;4973478;28;20047;-81
2023/09/17 11:36:11;;;;;;;24.95;18.58;;;19.50;82.10;;;;;;4973463;28;20341;-81
2023/09/17 11:38:38;;;;;;;27.17;19.98;;;19.50;81.60;;;;;;4973447;28;20536;-81
2023/09/17 11:41:08;;;;;;;27.13;19.58;;;19.60;81.80;;;;;;4988787;28;20043;-81
2023/09/17 11:43:37;;;;;;;23.95;18.40;;;19.70;82.00;;;;;;4992492;28;20050;-82
2023/09/17 11:46:08;;;;;;;23.37;18.10;;;19.70;82.20;;;;;;4992848;28;20093;-81
2023/09/17 11:48:36;;;;;;;26.95;19.80;;;19.70;82.20;;;;;;4991638;28;20381;-81
2023/09/17 11:51:20;;;;;;;27.35;19.02;;;19.70;82.10;;;;;;4957630;28;20054;-81
2023/09/17 11:53:52;;;;;;;24.13;18.73;;;19.80;82.10;;;;;;4954266;28;20082;-81
2023/09/17 11:56:19;;;;;;;25.48;18.67;;;19.80;82.10;;;;;;4971972;28;20154;-81
2023/09/17 11:58:58;;;;;;;25.60;18.73;;;19.90;82.30;;;;;;4992795;28;20081;-81
2023/09/17 12:01:25;;;;;;;23.70;18.42;;;20.00;82.50;;;;;;5011001;28;20353;-81
2023/09/17 12:03:55;;;;;;;23.77;17.70;;;20.00;82.40;;;;;;4992739;28;20275;-81
2023/09/17 12:06:24;;;;;;;27.27;19.27;;;20.00;82.40;;;;;;4988377;28;20061;-81
2023/09/17 12:08:51;;;;;;;26.17;18.52;;;20.00;82.50;;;;;;4957133;28;20074;-81
2023/09/17 12:11:22;;;;;;;25.27;18.70;;;20.10;82.50;;;;;;5005818;28;20057;-81
2023/09/17 12:13:53;;;;;;;25.92;19.17;;;20.10;82.50;;;;;;4957487;28;20282;-81
2023/09/17 12:16:24;;;;;;;25.73;19.23;;;20.20;82.40;;;;;;4989739;28;20050;-81
2023/09/17 12:18:52;;;;;;;25.08;18.88;;;20.30;82.40;;;;;;5004679;28;20077;-81
2023/09/17 12:21:20;;;;;;;25.55;18.60;;;20.30;82.30;;;;;;4972676;28;20537;-81
2023/09/17 12:23:56;;;;;;;25.80;19.03;;;20.30;82.20;;;;;;4987109;28;20118;-81
2023/09/17 12:26:30;;;;;;;26.17;18.92;;;20.30;82.20;;;;;;4973044;28;20873;-81
2023/09/17 12:28:57;;;;;;;28.83;19.80;;;20.40;81.90;;;;;;4991025;28;20058;-81
2023/09/17 12:31:25;;;;;;;28.00;19.83;;;20.40;81.70;;;;;;4992307;28;20051;-81
2023/09/17 12:33:53;;;;;;;24.65;18.02;;;20.50;81.70;;;;;;4991064;28;20054;-81
2023/09/17 12:36:20;;;;;;;27.00;19.40;;;20.50;81.60;;;;;;4973312;28;20178;-81